sensor_id;sensor_type;location;lat;lon;timestamp;pressure;altitude;pressure_sealevel;temperature;humidity
50105;BME280;47690;39.202;-77.198;2023-05-08T00:02:34;99589.59;;;50.05;11.71
50105;BME280;47690;39.202;-77.198;2023-05-08T00:05:05;99596.69;;;49.92;11.61
50105;BME280;47690;39.202;-77.198;2023-05-08T00:07:36;99606.22;;;49.95;11.49
50105;BME280;47690;39.202;-77.198;2023-05-08T00:10:08;99603.06;;;49.87;11.75
50105;BME280;47690;39.202;-77.198;2023-05-08T00:12:38;99597.19;;;50.22;10.73
50105;BME280;47690;39.202;-77.198;2023-05-08T00:15:08;99604.69;;;49.88;11.54
50105;BME280;47690;39.202;-77.198;2023-05-08T00:17:38;99596.06;;;50.23;11.40
50105;BME280;47690;39.202;-77.198;2023-05-08T00:20:09;99594.56;;;50.03;11.45
50105;BME280;47690;39.202;-77.198;2023-05-08T00:22:46;99595.41;;;50.68;11.13
50105;BME280;47690;39.202;-77.198;2023-05-08T00:25:16;99588.28;;;50.67;10.85
50105;BME280;47690;39.202;-77.198;2023-05-08T00:27:48;99596.78;;;50.29;11.22
50105;BME280;47690;39.202;-77.198;2023-05-08T00:30:19;99595.34;;;49.89;11.32
50105;BME280;47690;39.202;-77.198;2023-05-08T00:32:52;99589.69;;;50.28;10.82
50105;BME280;47690;39.202;-77.198;2023-05-08T00:35:23;99580.16;;;50.11;11.44
50105;BME280;47690;39.202;-77.198;2023-05-08T00:37:58;99578.84;;;49.81;11.34
50105;BME280;47690;39.202;-77.198;2023-05-08T00:40:33;99582.59;;;49.85;11.60
50105;BME280;47690;39.202;-77.198;2023-05-08T00:43:02;99592.03;;;50.21;11.27
50105;BME280;47690;39.202;-77.198;2023-05-08T00:45:37;99598.09;;;49.89;11.37
50105;BME280;47690;39.202;-77.198;2023-05-08T00:48:17;99604.91;;;49.78;10.95
50105;BME280;47690;39.202;-77.198;2023-05-08T00:50:54;99599.41;;;50.48;10.88
50105;BME280;47690;39.202;-77.198;2023-05-08T00:53:29;99603.47;;;50.09;11.16
50105;BME280;47690;39.202;-77.198;2023-05-08T00:56:19;99603.88;;;50.16;11.36
50105;BME280;47690;39.202;-77.198;2023-05-08T00:58:54;99605.47;;;50.59;10.58
50105;BME280;47690;39.202;-77.198;2023-05-08T01:01:31;99611.19;;;50.07;10.95
50105;BME280;47690;39.202;-77.198;2023-05-08T01:04:06;99613.00;;;50.39;10.32
50105;BME280;47690;39.202;-77.198;2023-05-08T01:06:38;99609.53;;;50.62;10.71
50105;BME280;47690;39.202;-77.198;2023-05-08T01:09:17;99609.94;;;50.55;11.08
50105;BME280;47690;39.202;-77.198;2023-05-08T01:14:50;99607.56;;;49.50;11.55
50105;BME280;47690;39.202;-77.198;2023-05-08T01:17:58;99615.97;;;49.54;11.57
50105;BME280;47690;39.202;-77.198;2023-05-08T01:26:53;99624.06;;;50.48;11.18
50105;BME280;47690;39.202;-77.198;2023-05-08T01:32:31;99641.09;;;50.96;10.79
50105;BME280;47690;39.202;-77.198;2023-05-08T01:35:31;99647.72;;;51.18;10.46
50105;BME280;47690;39.202;-77.198;2023-05-08T01:38:21;99657.94;;;50.24;10.67
50105;BME280;47690;39.202;-77.198;2023-05-08T01:41:07;99664.69;;;49.71;11.49
50105;BME280;47690;39.202;-77.198;2023-05-08T01:46:23;99678.34;;;50.32;10.56
50105;BME280;47690;39.202;-77.198;2023-05-08T01:49:02;99668.69;;;50.49;11.08
50105;BME280;47690;39.202;-77.198;2023-05-08T01:51:43;99670.97;;;49.52;10.94
50105;BME280;47690;39.202;-77.198;2023-05-08T01:54:21;99658.44;;;50.40;10.66
50105;BME280;47690;39.202;-77.198;2023-05-08T01:56:55;99659.84;;;49.82;11.09
50105;BME280;47690;39.202;-77.198;2023-05-08T01:59:33;99668.53;;;49.70;11.35
50105;BME280;47690;39.202;-77.198;2023-05-08T02:02:04;99668.31;;;48.94;11.48
50105;BME280;47690;39.202;-77.198;2023-05-08T02:04:38;99665.75;;;50.17;10.52
50105;BME280;47690;39.202;-77.198;2023-05-08T02:07:12;99666.16;;;49.30;11.50
50105;BME280;47690;39.202;-77.198;2023-05-08T02:09:45;99665.34;;;50.24;10.66
50105;BME280;47690;39.202;-77.198;2023-05-08T02:12:17;99659.88;;;50.24;10.21
50105;BME280;47690;39.202;-77.198;2023-05-08T02:14:48;99656.31;;;50.09;10.39
50105;BME280;47690;39.202;-77.198;2023-05-08T02:17:26;99646.44;;;49.94;10.86
50105;BME280;47690;39.202;-77.198;2023-05-08T02:19:58;99644.50;;;49.14;11.02
50105;BME280;47690;39.202;-77.198;2023-05-08T02:22:30;99634.69;;;48.94;10.98
50105;BME280;47690;39.202;-77.198;2023-05-08T02:25:07;99629.41;;;48.78;11.78
50105;BME280;47690;39.202;-77.198;2023-05-08T02:27:43;99636.63;;;49.79;10.66
50105;BME280;47690;39.202;-77.198;2023-05-08T02:30:19;99630.59;;;48.72;11.16
50105;BME280;47690;39.202;-77.198;2023-05-08T02:32:53;99623.13;;;48.39;11.73
50105;BME280;47690;39.202;-77.198;2023-05-08T02:35:32;99617.13;;;49.67;10.82
50105;BME280;47690;39.202;-77.198;2023-05-08T02:38:04;99603.47;;;49.95;10.54
50105;BME280;47690;39.202;-77.198;2023-05-08T02:40:43;99594.66;;;49.98;10.70
50105;BME280;47690;39.202;-77.198;2023-05-08T02:43:17;99601.84;;;49.94;10.53
50105;BME280;47690;39.202;-77.198;2023-05-08T02:48:38;99583.28;;;49.77;10.83
50105;BME280;47690;39.202;-77.198;2023-05-08T02:54:20;99581.31;;;49.49;10.84
50105;BME280;47690;39.202;-77.198;2023-05-08T03:00:26;99567.47;;;49.87;10.83
50105;BME280;47690;39.202;-77.198;2023-05-08T03:03:18;99558.28;;;49.83;10.83
50105;BME280;47690;39.202;-77.198;2023-05-08T03:05:54;99551.97;;;49.83;11.14
50105;BME280;47690;39.202;-77.198;2023-05-08T03:08:36;99555.72;;;49.73;11.41
50105;BME280;47690;39.202;-77.198;2023-05-08T03:11:16;99557.41;;;49.41;11.36
50105;BME280;47690;39.202;-77.198;2023-05-08T03:13:57;99551.72;;;49.04;11.31
50105;BME280;47690;39.202;-77.198;2023-05-08T03:16:32;99555.28;;;48.47;11.99
50105;BME280;47690;39.202;-77.198;2023-05-08T03:19:06;99553.72;;;48.40;11.77
50105;BME280;47690;39.202;-77.198;2023-05-08T03:21:43;99557.97;;;48.27;11.73
50105;BME280;47690;39.202;-77.198;2023-05-08T03:24:18;99560.44;;;48.48;11.32
50105;BME280;47690;39.202;-77.198;2023-05-08T03:26:50;99558.81;;;48.04;11.93
50105;BME280;47690;39.202;-77.198;2023-05-08T03:29:24;99553.31;;;47.84;11.99
50105;BME280;47690;39.202;-77.198;2023-05-08T03:32:01;99553.50;;;47.93;12.16
50105;BME280;47690;39.202;-77.198;2023-05-08T03:34:49;99549.84;;;48.66;12.01
50105;BME280;47690;39.202;-77.198;2023-05-08T03:37:22;99550.28;;;48.54;11.42
50105;BME280;47690;39.202;-77.198;2023-05-08T03:39:57;99540.81;;;48.65;11.29
50105;BME280;47690;39.202;-77.198;2023-05-08T03:42:30;99540.66;;;48.37;11.66
50105;BME280;47690;39.202;-77.198;2023-05-08T03:45:05;99534.66;;;47.92;11.73
50105;BME280;47690;39.202;-77.198;2023-05-08T03:47:36;99530.19;;;48.01;11.45
50105;BME280;47690;39.202;-77.198;2023-05-08T03:50:09;99522.19;;;49.06;11.34
50105;BME280;47690;39.202;-77.198;2023-05-08T03:52:39;99520.38;;;47.76;11.64
50105;BME280;47690;39.202;-77.198;2023-05-08T03:55:17;99510.91;;;47.43;12.25
50105;BME280;47690;39.202;-77.198;2023-05-08T03:58:20;99515.19;;;48.23;11.56
50105;BME280;47690;39.202;-77.198;2023-05-08T04:01:51;99512.16;;;47.81;12.20
50105;BME280;47690;39.202;-77.198;2023-05-08T04:04:33;99510.84;;;48.41;11.35
50105;BME280;47690;39.202;-77.198;2023-05-08T04:07:32;99508.63;;;47.80;11.52
50105;BME280;47690;39.202;-77.198;2023-05-08T04:16:08;99502.03;;;47.57;11.76
50105;BME280;47690;39.202;-77.198;2023-05-08T04:19:00;99490.53;;;47.36;12.08
50105;BME280;47690;39.202;-77.198;2023-05-08T04:21:34;99491.34;;;47.07;12.32
50105;BME280;47690;39.202;-77.198;2023-05-08T04:24:13;99500.16;;;47.23;12.30
50105;BME280;47690;39.202;-77.198;2023-05-08T04:26:49;99498.03;;;47.98;11.92
50105;BME280;47690;39.202;-77.198;2023-05-08T04:29:26;99493.25;;;48.09;11.59
50105;BME280;47690;39.202;-77.198;2023-05-08T04:31:57;99481.69;;;47.19;12.03
50105;BME280;47690;39.202;-77.198;2023-05-08T04:34:34;99484.06;;;47.26;12.33
50105;BME280;47690;39.202;-77.198;2023-05-08T04:37:06;99484.34;;;47.54;11.94
50105;BME280;47690;39.202;-77.198;2023-05-08T04:39:38;99480.94;;;49.92;10.24
50105;BME280;47690;39.202;-77.198;2023-05-08T04:42:13;99489.28;;;48.78;11.16
50105;BME280;47690;39.202;-77.198;2023-05-08T04:44:46;99484.53;;;48.50;11.32
50105;BME280;47690;39.202;-77.198;2023-05-08T04:47:18;99475.06;;;48.23;11.62
50105;BME280;47690;39.202;-77.198;2023-05-08T04:49:48;99484.72;;;48.16;11.95
50105;BME280;47690;39.202;-77.198;2023-05-08T04:52:21;99487.28;;;48.07;11.75
50105;BME280;47690;39.202;-77.198;2023-05-08T04:54:50;99489.16;;;48.11;11.94
50105;BME280;47690;39.202;-77.198;2023-05-08T04:57:22;99489.22;;;48.25;11.45
50105;BME280;47690;39.202;-77.198;2023-05-08T04:59:51;99478.59;;;47.56;12.08
50105;BME280;47690;39.202;-77.198;2023-05-08T05:02:29;99482.75;;;47.48;12.16
50105;BME280;47690;39.202;-77.198;2023-05-08T05:04:59;99477.06;;;47.74;11.89
50105;BME280;47690;39.202;-77.198;2023-05-08T05:07:32;99486.75;;;48.05;11.59
50105;BME280;47690;39.202;-77.198;2023-05-08T05:10:04;99488.41;;;47.27;12.22
50105;BME280;47690;39.202;-77.198;2023-05-08T05:12:33;99489.09;;;47.92;11.56
50105;BME280;47690;39.202;-77.198;2023-05-08T05:15:06;99493.94;;;47.46;11.90
50105;BME280;47690;39.202;-77.198;2023-05-08T05:17:38;99488.94;;;47.00;11.89
50105;BME280;47690;39.202;-77.198;2023-05-08T05:20:08;99489.19;;;47.33;12.02
50105;BME280;47690;39.202;-77.198;2023-05-08T05:22:42;99496.69;;;47.46;11.78
50105;BME280;47690;39.202;-77.198;2023-05-08T05:25:15;99477.72;;;47.36;11.92
50105;BME280;47690;39.202;-77.198;2023-05-08T05:27:49;99480.91;;;46.79;12.32
50105;BME280;47690;39.202;-77.198;2023-05-08T05:30:18;99476.06;;;46.71;12.03
50105;BME280;47690;39.202;-77.198;2023-05-08T05:32:49;99478.41;;;46.83;11.77
50105;BME280;47690;39.202;-77.198;2023-05-08T05:35:20;99489.63;;;46.81;12.29
50105;BME280;47690;39.202;-77.198;2023-05-08T05:37:54;99487.44;;;47.91;11.44
50105;BME280;47690;39.202;-77.198;2023-05-08T05:40:25;99484.22;;;47.40;11.75
50105;BME280;47690;39.202;-77.198;2023-05-08T05:42:54;99465.44;;;47.63;11.21
50105;BME280;47690;39.202;-77.198;2023-05-08T05:45:25;99470.53;;;47.45;11.33
50105;BME280;47690;39.202;-77.198;2023-05-08T05:47:54;99475.38;;;46.49;12.23
50105;BME280;47690;39.202;-77.198;2023-05-08T05:50:26;99468.69;;;47.11;11.77
50105;BME280;47690;39.202;-77.198;2023-05-08T05:52:57;99466.00;;;46.71;11.70
50105;BME280;47690;39.202;-77.198;2023-05-08T05:55:29;99459.47;;;47.37;11.62
50105;BME280;47690;39.202;-77.198;2023-05-08T05:57:59;99468.38;;;47.13;11.64
50105;BME280;47690;39.202;-77.198;2023-05-08T06:00:33;99466.53;;;47.32;11.55
50105;BME280;47690;39.202;-77.198;2023-05-08T06:03:03;99465.38;;;47.14;11.42
50105;BME280;47690;39.202;-77.198;2023-05-08T06:05:34;99458.97;;;46.95;11.84
50105;BME280;47690;39.202;-77.198;2023-05-08T06:08:06;99458.53;;;47.17;11.70
50105;BME280;47690;39.202;-77.198;2023-05-08T06:10:38;99456.25;;;46.95;11.42
50105;BME280;47690;39.202;-77.198;2023-05-08T06:13:09;99457.44;;;47.48;11.11
50105;BME280;47690;39.202;-77.198;2023-05-08T06:15:50;99461.47;;;47.75;11.18
50105;BME280;47690;39.202;-77.198;2023-05-08T06:18:25;99463.50;;;47.64;11.13
50105;BME280;47690;39.202;-77.198;2023-05-08T06:20:59;99469.72;;;47.69;10.89
50105;BME280;47690;39.202;-77.198;2023-05-08T06:23:37;99465.72;;;47.62;10.78
50105;BME280;47690;39.202;-77.198;2023-05-08T06:26:38;99467.94;;;47.30;11.27
50105;BME280;47690;39.202;-77.198;2023-05-08T06:29:59;99470.94;;;48.26;10.65
50105;BME280;47690;39.202;-77.198;2023-05-08T06:33:55;99466.34;;;46.94;11.09
50105;BME280;47690;39.202;-77.198;2023-05-08T06:36:47;99481.78;;;46.69;11.59
50105;BME280;47690;39.202;-77.198;2023-05-08T06:39:19;99484.00;;;46.67;11.67
50105;BME280;47690;39.202;-77.198;2023-05-08T06:41:54;99487.72;;;46.76;11.61
50105;BME280;47690;39.202;-77.198;2023-05-08T06:44:30;99486.22;;;46.95;11.32
50105;BME280;47690;39.202;-77.198;2023-05-08T06:47:02;99484.94;;;47.76;10.59
50105;BME280;47690;39.202;-77.198;2023-05-08T06:49:35;99480.50;;;46.96;11.48
50105;BME280;47690;39.202;-77.198;2023-05-08T06:52:06;99481.28;;;47.02;10.94
50105;BME280;47690;39.202;-77.198;2023-05-08T06:54:38;99495.06;;;46.81;11.37
50105;BME280;47690;39.202;-77.198;2023-05-08T06:57:10;99498.44;;;48.87;10.36
50105;BME280;47690;39.202;-77.198;2023-05-08T06:59:48;99493.44;;;47.69;10.52
50105;BME280;47690;39.202;-77.198;2023-05-08T07:02:19;99488.28;;;47.13;10.99
50105;BME280;47690;39.202;-77.198;2023-05-08T07:04:49;99494.03;;;46.72;11.57
50105;BME280;47690;39.202;-77.198;2023-05-08T07:07:22;99484.50;;;46.69;11.18
50105;BME280;47690;39.202;-77.198;2023-05-08T07:09:53;99479.56;;;46.36;11.92
50105;BME280;47690;39.202;-77.198;2023-05-08T07:12:25;99476.38;;;46.24;11.84
50105;BME280;47690;39.202;-77.198;2023-05-08T07:14:57;99466.00;;;46.26;11.67
50105;BME280;47690;39.202;-77.198;2023-05-08T07:17:35;99468.44;;;46.33;11.57
50105;BME280;47690;39.202;-77.198;2023-05-08T07:20:07;99461.34;;;46.32;11.20
50105;BME280;47690;39.202;-77.198;2023-05-08T07:22:51;99459.34;;;46.43;11.08
50105;BME280;47690;39.202;-77.198;2023-05-08T07:25:30;99451.66;;;46.55;11.48
50105;BME280;47690;39.202;-77.198;2023-05-08T07:28:06;99450.00;;;46.09;11.30
50105;BME280;47690;39.202;-77.198;2023-05-08T07:30:49;99452.59;;;45.69;11.93
50105;BME280;47690;39.202;-77.198;2023-05-08T07:33:26;99445.88;;;45.56;12.01
50105;BME280;47690;39.202;-77.198;2023-05-08T07:36:06;99452.69;;;45.33;12.17
50105;BME280;47690;39.202;-77.198;2023-05-08T07:39:01;99453.94;;;45.87;11.57
50105;BME280;47690;39.202;-77.198;2023-05-08T07:41:37;99465.72;;;45.46;12.03
50105;BME280;47690;39.202;-77.198;2023-05-08T07:44:30;99463.41;;;45.95;11.61
50105;BME280;47690;39.202;-77.198;2023-05-08T07:47:28;99462.47;;;45.39;12.02
50105;BME280;47690;39.202;-77.198;2023-05-08T07:50:33;99465.47;;;45.48;11.95
50105;BME280;47690;39.202;-77.198;2023-05-08T07:53:06;99473.31;;;45.60;10.94
50105;BME280;47690;39.202;-77.198;2023-05-08T07:56:08;99466.19;;;45.79;11.58
50105;BME280;47690;39.202;-77.198;2023-05-08T07:58:48;99467.56;;;45.72;11.52
50105;BME280;47690;39.202;-77.198;2023-05-08T08:01:22;99470.66;;;46.20;11.14
50105;BME280;47690;39.202;-77.198;2023-05-08T08:04:05;99461.00;;;45.78;11.72
50105;BME280;47690;39.202;-77.198;2023-05-08T08:06:38;99458.34;;;45.67;11.88
50105;BME280;47690;39.202;-77.198;2023-05-08T08:09:18;99468.44;;;45.46;11.40
50105;BME280;47690;39.202;-77.198;2023-05-08T08:11:49;99467.91;;;45.44;11.94
50105;BME280;47690;39.202;-77.198;2023-05-08T08:14:31;99476.22;;;45.79;11.73
50105;BME280;47690;39.202;-77.198;2023-05-08T08:17:10;99474.75;;;46.13;10.95
50105;BME280;47690;39.202;-77.198;2023-05-08T08:20:01;99484.22;;;46.31;11.02
50105;BME280;47690;39.202;-77.198;2023-05-08T08:23:29;99471.66;;;45.69;11.36
50105;BME280;47690;39.202;-77.198;2023-05-08T08:26:01;99471.78;;;46.19;10.79
50105;BME280;47690;39.202;-77.198;2023-05-08T08:28:35;99476.09;;;45.34;11.91
50105;BME280;47690;39.202;-77.198;2023-05-08T08:31:30;99473.09;;;45.25;11.80
50105;BME280;47690;39.202;-77.198;2023-05-08T08:34:05;99464.56;;;45.78;11.72
50105;BME280;47690;39.202;-77.198;2023-05-08T08:36:38;99461.09;;;45.36;11.36
50105;BME280;47690;39.202;-77.198;2023-05-08T08:39:35;99470.97;;;46.08;11.17
50105;BME280;47690;39.202;-77.198;2023-05-08T08:42:20;99473.09;;;45.46;11.79
50105;BME280;47690;39.202;-77.198;2023-05-08T08:45:06;99474.72;;;45.41;11.30
50105;BME280;47690;39.202;-77.198;2023-05-08T08:47:51;99466.56;;;45.41;11.95
50105;BME280;47690;39.202;-77.198;2023-05-08T08:50:58;99471.69;;;45.59;11.40
50105;BME280;47690;39.202;-77.198;2023-05-08T08:53:41;99471.44;;;45.55;11.31
50105;BME280;47690;39.202;-77.198;2023-05-08T08:56:22;99460.03;;;45.37;11.78
50105;BME280;47690;39.202;-77.198;2023-05-08T08:58:56;99455.97;;;45.35;11.58
50105;BME280;47690;39.202;-77.198;2023-05-08T09:02:07;99475.19;;;45.75;11.32
50105;BME280;47690;39.202;-77.198;2023-05-08T09:04:54;99472.09;;;46.53;11.23
50105;BME280;47690;39.202;-77.198;2023-05-08T09:08:05;99456.75;;;46.67;11.13
50105;BME280;47690;39.202;-77.198;2023-05-08T09:10:37;99480.22;;;46.58;10.58
50105;BME280;47690;39.202;-77.198;2023-05-08T09:13:13;99474.88;;;46.47;11.09
50105;BME280;47690;39.202;-77.198;2023-05-08T09:16:06;99464.16;;;46.56;11.01
50105;BME280;47690;39.202;-77.198;2023-05-08T09:18:54;99460.41;;;46.52;11.14
50105;BME280;47690;39.202;-77.198;2023-05-08T09:21:26;99468.81;;;46.56;11.24
50105;BME280;47690;39.202;-77.198;2023-05-08T09:24:03;99459.50;;;46.22;11.73
50105;BME280;47690;39.202;-77.198;2023-05-08T09:30:18;99459.78;;;46.15;11.32
50105;BME280;47690;39.202;-77.198;2023-05-08T09:33:03;99463.72;;;45.78;12.04
50105;BME280;47690;39.202;-77.198;2023-05-08T09:35:38;99466.81;;;45.55;11.77
50105;BME280;47690;39.202;-77.198;2023-05-08T09:41:59;99456.31;;;45.99;11.34
50105;BME280;47690;39.202;-77.198;2023-05-08T09:49:15;99441.13;;;46.43;11.42
50105;BME280;47690;39.202;-77.198;2023-05-08T09:52:02;99433.56;;;45.85;11.45
50105;BME280;47690;39.202;-77.198;2023-05-08T09:55:18;99439.72;;;46.01;12.00
50105;BME280;47690;39.202;-77.198;2023-05-08T09:58:43;99444.38;;;45.95;11.43
50105;BME280;47690;39.202;-77.198;2023-05-08T10:01:38;99444.44;;;45.69;11.56
50105;BME280;47690;39.202;-77.198;2023-05-08T10:05:22;99456.41;;;45.68;11.87
50105;BME280;47690;39.202;-77.198;2023-05-08T10:10:51;99465.16;;;45.60;12.02
50105;BME280;47690;39.202;-77.198;2023-05-08T10:13:26;99460.84;;;45.38;11.81
50105;BME280;47690;39.202;-77.198;2023-05-08T10:15:59;99468.72;;;45.29;12.11
50105;BME280;47690;39.202;-77.198;2023-05-08T10:18:38;99473.09;;;45.25;12.02
50105;BME280;47690;39.202;-77.198;2023-05-08T10:21:31;99471.00;;;46.03;11.93
50105;BME280;47690;39.202;-77.198;2023-05-08T10:24:20;99477.63;;;46.37;11.24
50105;BME280;47690;39.202;-77.198;2023-05-08T10:27:10;99482.97;;;46.53;11.92
50105;BME280;47690;39.202;-77.198;2023-05-08T10:29:55;99493.00;;;46.57;11.40
50105;BME280;47690;39.202;-77.198;2023-05-08T10:39:05;99499.94;;;47.49;10.74
50105;BME280;47690;39.202;-77.198;2023-05-08T10:42:23;99504.00;;;47.22;11.01
50105;BME280;47690;39.202;-77.198;2023-05-08T10:45:07;99515.63;;;46.63;11.18
50105;BME280;47690;39.202;-77.198;2023-05-08T10:48:38;99509.75;;;46.40;11.61
50105;BME280;47690;39.202;-77.198;2023-05-08T10:57:08;99513.91;;;47.96;10.23
50105;BME280;47690;39.202;-77.198;2023-05-08T10:59:58;99514.94;;;47.16;10.63
50105;BME280;47690;39.202;-77.198;2023-05-08T11:03:24;99521.72;;;47.19;11.23
50105;BME280;47690;39.202;-77.198;2023-05-08T11:06:03;99522.94;;;46.68;11.10
50105;BME280;47690;39.202;-77.198;2023-05-08T11:08:53;99530.34;;;47.02;11.34
50105;BME280;47690;39.202;-77.198;2023-05-08T11:11:38;99529.50;;;47.66;10.87
50105;BME280;47690;39.202;-77.198;2023-05-08T11:14:22;99528.16;;;47.63;10.71
50105;BME280;47690;39.202;-77.198;2023-05-08T11:19:31;99547.13;;;46.24;11.40
50105;BME280;47690;39.202;-77.198;2023-05-08T11:22:33;99552.31;;;47.16;11.09
50105;BME280;47690;39.202;-77.198;2023-05-08T11:25:10;99550.72;;;47.74;10.87
50105;BME280;47690;39.202;-77.198;2023-05-08T11:30:35;99554.81;;;47.96;10.90
50105;BME280;47690;39.202;-77.198;2023-05-08T11:35:58;99545.75;;;48.25;10.94
50105;BME280;47690;39.202;-77.198;2023-05-08T11:38:38;99551.78;;;49.65;9.74
50105;BME280;47690;39.202;-77.198;2023-05-08T11:41:27;99544.03;;;50.37;9.50
50105;BME280;47690;39.202;-77.198;2023-05-08T11:46:52;99561.16;;;50.43;9.56
50105;BME280;47690;39.202;-77.198;2023-05-08T11:49:25;99566.94;;;49.57;10.23
50105;BME280;47690;39.202;-77.198;2023-05-08T11:52:01;99576.84;;;49.53;10.05
50105;BME280;47690;39.202;-77.198;2023-05-08T11:54:50;99582.09;;;49.35;10.18
50105;BME280;47690;39.202;-77.198;2023-05-08T11:57:20;99592.63;;;49.28;10.44
50105;BME280;47690;39.202;-77.198;2023-05-08T12:00:02;99599.53;;;49.20;10.09
50105;BME280;47690;39.202;-77.198;2023-05-08T12:03:19;99602.59;;;49.99;10.61
50105;BME280;47690;39.202;-77.198;2023-05-08T12:05:56;99601.66;;;50.46;10.08
50105;BME280;47690;39.202;-77.198;2023-05-08T12:08:38;99605.22;;;50.83;9.47
50105;BME280;47690;39.202;-77.198;2023-05-08T12:11:10;99603.97;;;50.25;9.86
50105;BME280;47690;39.202;-77.198;2023-05-08T12:13:58;99594.97;;;50.24;10.68
50105;BME280;47690;39.202;-77.198;2023-05-08T12:16:38;99593.31;;;50.51;10.40
50105;BME280;47690;39.202;-77.198;2023-05-08T12:19:27;99597.75;;;50.61;10.06
50105;BME280;47690;39.202;-77.198;2023-05-08T12:22:03;99599.47;;;50.94;9.92
50105;BME280;47690;39.202;-77.198;2023-05-08T12:24:33;99603.72;;;50.63;10.85
50105;BME280;47690;39.202;-77.198;2023-05-08T12:27:06;99614.31;;;50.93;10.85
50105;BME280;47690;39.202;-77.198;2023-05-08T12:29:42;99613.34;;;50.75;11.02
50105;BME280;47690;39.202;-77.198;2023-05-08T12:32:39;99600.91;;;51.14;10.74
50105;BME280;47690;39.202;-77.198;2023-05-08T12:35:19;99607.56;;;50.99;10.93
50105;BME280;47690;39.202;-77.198;2023-05-08T12:38:02;99607.47;;;51.04;10.54
50105;BME280;47690;39.202;-77.198;2023-05-08T12:40:41;99600.53;;;51.07;10.84
50105;BME280;47690;39.202;-77.198;2023-05-08T12:43:18;99599.22;;;50.81;10.89
50105;BME280;47690;39.202;-77.198;2023-05-08T12:46:01;99600.31;;;51.17;10.96
50105;BME280;47690;39.202;-77.198;2023-05-08T12:49:02;99599.09;;;51.64;10.68
50105;BME280;47690;39.202;-77.198;2023-05-08T12:51:38;99601.56;;;51.11;11.41
50105;BME280;47690;39.202;-77.198;2023-05-08T12:55:27;99592.28;;;51.53;11.25
50105;BME280;47690;39.202;-77.198;2023-05-08T12:58:31;99589.31;;;52.21;11.07
50105;BME280;47690;39.202;-77.198;2023-05-08T13:01:09;99595.25;;;51.10;11.85
50105;BME280;47690;39.202;-77.198;2023-05-08T13:03:51;99595.59;;;50.72;12.24
50105;BME280;47690;39.202;-77.198;2023-05-08T13:06:30;99602.75;;;50.45;11.47
50105;BME280;47690;39.202;-77.198;2023-05-08T13:09:01;99594.34;;;50.27;11.82
50105;BME280;47690;39.202;-77.198;2023-05-08T13:11:35;99583.91;;;50.43;12.31
50105;BME280;47690;39.202;-77.198;2023-05-08T13:14:19;99594.53;;;52.67;10.56
50105;BME280;47690;39.202;-77.198;2023-05-08T13:16:50;99596.53;;;51.36;11.75
50105;BME280;47690;39.202;-77.198;2023-05-08T13:19:21;99599.75;;;52.01;11.41
50105;BME280;47690;39.202;-77.198;2023-05-08T13:21:51;99602.31;;;52.65;10.53
50105;BME280;47690;39.202;-77.198;2023-05-08T13:24:31;99602.53;;;51.15;12.24
50105;BME280;47690;39.202;-77.198;2023-05-08T13:32:51;99603.81;;;51.72;11.38
50105;BME280;47690;39.202;-77.198;2023-05-08T13:42:34;99616.53;;;52.93;10.94
50105;BME280;47690;39.202;-77.198;2023-05-08T13:46:58;99614.56;;;52.76;11.14
50105;BME280;47690;39.202;-77.198;2023-05-08T13:49:34;99618.13;;;53.03;10.77
50105;BME280;47690;39.202;-77.198;2023-05-08T13:52:06;99628.28;;;53.47;10.88
50105;BME280;47690;39.202;-77.198;2023-05-08T13:54:39;99621.31;;;53.40;10.88
50105;BME280;47690;39.202;-77.198;2023-05-08T13:57:10;99625.75;;;53.63;10.96
50105;BME280;47690;39.202;-77.198;2023-05-08T13:59:41;99630.44;;;53.71;11.04
50105;BME280;47690;39.202;-77.198;2023-05-08T14:02:17;99626.41;;;55.73;9.33
50105;BME280;47690;39.202;-77.198;2023-05-08T14:04:50;99643.84;;;54.12;10.33
50105;BME280;47690;39.202;-77.198;2023-05-08T14:07:22;99630.69;;;54.47;10.49
50105;BME280;47690;39.202;-77.198;2023-05-08T14:09:54;99617.78;;;55.74;9.28
50105;BME280;47690;39.202;-77.198;2023-05-08T14:12:31;99627.63;;;53.89;10.26
50105;BME280;47690;39.202;-77.198;2023-05-08T14:15:07;99634.22;;;53.97;10.19
50105;BME280;47690;39.202;-77.198;2023-05-08T14:17:50;99635.03;;;53.97;10.09
50105;BME280;47690;39.202;-77.198;2023-05-08T14:20:21;99629.16;;;53.69;10.85
50105;BME280;47690;39.202;-77.198;2023-05-08T14:22:55;99630.84;;;53.91;10.22
50105;BME280;47690;39.202;-77.198;2023-05-08T14:26:39;99633.16;;;54.19;9.87
50105;BME280;47690;39.202;-77.198;2023-05-08T14:29:54;99629.03;;;54.55;9.53
50105;BME280;47690;39.202;-77.198;2023-05-08T14:32:34;99623.50;;;54.55;10.03
50105;BME280;47690;39.202;-77.198;2023-05-08T14:35:21;99634.28;;;54.18;9.80
50105;BME280;47690;39.202;-77.198;2023-05-08T14:38:11;99634.13;;;53.75;10.22
50105;BME280;47690;39.202;-77.198;2023-05-08T14:40:57;99637.25;;;56.56;8.11
50105;BME280;47690;39.202;-77.198;2023-05-08T14:43:31;99635.53;;;54.93;9.84
50105;BME280;47690;39.202;-77.198;2023-05-08T14:46:09;99640.56;;;53.40;10.17
50105;BME280;47690;39.202;-77.198;2023-05-08T14:48:39;99638.75;;;53.45;10.89
50105;BME280;47690;39.202;-77.198;2023-05-08T14:51:18;99641.50;;;54.01;9.78
50105;BME280;47690;39.202;-77.198;2023-05-08T14:53:53;99645.59;;;53.30;10.10
50105;BME280;47690;39.202;-77.198;2023-05-08T14:56:26;99648.69;;;52.93;10.48
50105;BME280;47690;39.202;-77.198;2023-05-08T14:59:21;99648.84;;;53.05;10.89
50105;BME280;47690;39.202;-77.198;2023-05-08T15:01:56;99647.88;;;53.28;10.62
50105;BME280;47690;39.202;-77.198;2023-05-08T15:04:29;99651.75;;;53.26;10.37
50105;BME280;47690;39.202;-77.198;2023-05-08T15:06:59;99658.53;;;53.29;10.78
50105;BME280;47690;39.202;-77.198;2023-05-08T15:09:35;99651.59;;;52.96;10.48
50105;BME280;47690;39.202;-77.198;2023-05-08T15:12:19;99646.78;;;52.93;10.93